createdAt,value
2023-05-21T00:00:13.748Z,18.62
2023-05-21T00:01:13.745Z,18.27
2023-05-21T00:02:13.805Z,18.38
2023-05-21T00:03:14.189Z,18.27
2023-05-21T00:04:13.878Z,18.15
2023-05-21T00:05:14.902Z,18.12
2023-05-21T00:06:14.076Z,18.21
2023-05-21T00:07:14.055Z,18.16
2023-05-21T00:08:14.084Z,18.45
2023-05-21T00:09:14.148Z,18.48
2023-05-21T00:10:14.190Z,18.60
2023-05-21T00:11:14.224Z,18.76
2023-05-21T00:12:14.263Z,18.89
2023-05-21T00:13:14.314Z,18.86
2023-05-21T00:14:14.336Z,18.62
2023-05-21T00:15:14.403Z,18.48
2023-05-21T00:16:14.460Z,18.19
2023-05-21T00:17:14.461Z,18.33
2023-05-21T00:18:14.512Z,18.13
2023-05-21T00:19:14.608Z,18.24
2023-05-21T00:20:14.656Z,18.09
2023-05-21T00:21:14.650Z,18.24
2023-05-21T00:22:14.658Z,18.42
2023-05-21T00:23:14.723Z,18.25
2023-05-21T00:24:14.790Z,18.08
2023-05-21T00:25:14.863Z,18.04
2023-05-21T00:26:14.886Z,17.98
2023-05-21T00:27:14.937Z,18.05
2023-05-21T00:28:14.940Z,17.77
2023-05-21T00:29:15.024Z,17.84
2023-05-21T00:30:15.082Z,18.04
2023-05-21T00:31:15.138Z,18.12
2023-05-21T00:32:15.151Z,18.22
2023-05-21T00:33:15.184Z,18.35
2023-05-21T00:34:15.221Z,18.46
2023-05-21T00:35:15.299Z,18.36
2023-05-21T00:36:15.297Z,18.27
2023-05-21T00:37:15.359Z,18.36
2023-05-21T00:38:15.365Z,18.31
2023-05-21T00:39:15.405Z,18.19
2023-05-21T00:40:15.479Z,18.07
2023-05-21T00:41:15.508Z,17.99
2023-05-21T00:42:15.624Z,17.64
2023-05-21T00:43:15.656Z,17.43
2023-05-21T00:44:15.646Z,17.43
2023-05-21T00:45:15.714Z,17.43
2023-05-21T00:46:15.730Z,17.25
2023-05-21T00:47:15.688Z,17.17
2023-05-21T00:48:15.802Z,17.30
2023-05-21T00:49:15.756Z,17.47
2023-05-21T00:50:15.881Z,17.41
2023-05-21T00:51:15.878Z,17.61
2023-05-21T00:52:15.903Z,17.71
2023-05-21T00:53:15.952Z,17.84
2023-05-21T00:54:15.976Z,17.81
2023-05-21T00:55:16.036Z,17.73
2023-05-21T00:56:16.098Z,17.76
2023-05-21T00:57:16.113Z,17.88
2023-05-21T00:58:16.150Z,17.76
2023-05-21T00:59:16.160Z,17.33
2023-05-21T01:00:16.235Z,17.06
2023-05-21T01:01:16.273Z,17.27
2023-05-21T01:02:16.237Z,17.31
2023-05-21T01:03:16.468Z,17.40
2023-05-21T01:04:16.268Z,17.40
2023-05-21T01:05:16.326Z,17.66
2023-05-21T01:06:16.287Z,17.73
2023-05-21T01:07:16.300Z,17.47
2023-05-21T01:08:16.356Z,17.44
2023-05-21T01:09:16.348Z,17.41
2023-05-21T01:10:16.376Z,17.27
2023-05-21T01:11:16.367Z,17.41
2023-05-21T01:12:16.375Z,17.49
2023-05-21T01:13:16.421Z,17.54
2023-05-21T01:14:16.432Z,17.54
2023-05-21T01:15:16.514Z,17.47
2023-05-21T01:16:16.488Z,17.44
2023-05-21T01:17:16.541Z,17.37
2023-05-21T01:18:16.560Z,17.34
2023-05-21T01:19:16.583Z,17.40
2023-05-21T01:20:16.563Z,17.53
2023-05-21T01:21:16.602Z,17.43
2023-05-21T01:22:16.643Z,17.50
2023-05-21T01:23:16.673Z,17.49
2023-05-21T01:24:16.718Z,17.39
2023-05-21T01:25:16.753Z,17.26
2023-05-21T01:26:16.758Z,17.09
2023-05-21T01:27:16.754Z,17.13
2023-05-21T01:28:16.780Z,17.30
2023-05-21T01:29:16.804Z,16.98
2023-05-21T01:30:16.825Z,17.03
2023-05-21T01:31:16.888Z,17.15
2023-05-21T01:32:16.885Z,17.02
2023-05-21T01:33:16.963Z,17.03
2023-05-21T01:34:16.952Z,17.29
2023-05-21T01:35:16.991Z,17.17
2023-05-21T01:36:17.029Z,17.22
2023-05-21T01:37:17.072Z,17.22
2023-05-21T01:38:17.114Z,17.20
2023-05-21T01:39:17.146Z,17.03
2023-05-21T01:40:17.163Z,17.05
2023-05-21T01:41:17.207Z,17.03
2023-05-21T01:42:17.224Z,16.92
2023-05-21T01:43:17.246Z,17.10
2023-05-21T01:44:17.280Z,17.16
2023-05-21T01:45:17.313Z,17.16
2023-05-21T01:46:17.372Z,17.19
2023-05-21T01:47:17.381Z,17.20
2023-05-21T01:48:17.414Z,17.39
2023-05-21T01:49:17.423Z,17.50
2023-05-21T01:50:17.496Z,17.61
2023-05-21T01:51:17.484Z,17.70
2023-05-21T01:52:17.555Z,17.74
2023-05-21T01:53:17.550Z,17.82
2023-05-21T01:54:17.570Z,17.58
2023-05-21T01:55:17.621Z,17.50
2023-05-21T01:56:17.637Z,17.50
2023-05-21T01:57:17.682Z,17.51
2023-05-21T01:58:17.726Z,17.49
2023-05-21T01:59:17.745Z,17.58
2023-05-21T02:00:17.785Z,17.68
2023-05-21T02:01:17.819Z,17.74
2023-05-21T02:02:17.889Z,17.60
2023-05-21T02:03:17.998Z,17.53
2023-05-21T02:04:17.876Z,17.30
2023-05-21T02:05:17.906Z,17.31
2023-05-21T02:06:17.941Z,17.17
2023-05-21T02:07:18.000Z,17.26
2023-05-21T02:08:18.039Z,17.15
2023-05-21T02:09:18.083Z,17.10
2023-05-21T02:10:18.140Z,17.17
2023-05-21T02:11:18.130Z,17.07
2023-05-21T02:12:18.155Z,16.95
2023-05-21T02:13:18.174Z,16.95
2023-05-21T02:14:18.204Z,16.50
2023-05-21T02:15:18.308Z,16.44
2023-05-21T02:16:18.305Z,16.58
2023-05-21T02:17:18.274Z,16.52
2023-05-21T02:18:18.272Z,16.51
2023-05-21T02:19:18.346Z,16.58
2023-05-21T02:20:18.346Z,16.50
2023-05-21T02:21:18.346Z,16.65
2023-05-21T02:22:18.398Z,16.69
2023-05-21T02:23:18.440Z,16.52
2023-05-21T02:24:18.460Z,16.68
2023-05-21T02:25:18.526Z,16.68
2023-05-21T02:26:18.515Z,16.79
2023-05-21T02:27:18.544Z,16.80
2023-05-21T02:28:18.559Z,16.76
2023-05-21T02:29:18.586Z,16.62
2023-05-21T02:30:18.671Z,16.68
2023-05-21T02:31:18.675Z,16.64
2023-05-21T02:32:18.728Z,16.45
2023-05-21T02:33:18.763Z,16.35
2023-05-21T02:34:18.810Z,16.54
2023-05-21T02:35:18.830Z,16.71
2023-05-21T02:36:18.808Z,16.51
2023-05-21T02:37:18.841Z,16.64
2023-05-21T02:38:18.852Z,16.80
2023-05-21T02:39:18.919Z,16.93
2023-05-21T02:40:18.964Z,17.09
2023-05-21T02:41:18.965Z,17.20
2023-05-21T02:42:19.024Z,17.26
2023-05-21T02:43:19.046Z,17.27
2023-05-21T02:44:19.119Z,17.30
2023-05-21T02:45:19.177Z,17.37
2023-05-21T02:46:19.214Z,17.43
2023-05-21T02:47:19.212Z,17.47
2023-05-21T02:48:19.231Z,17.50
2023-05-21T02:49:19.252Z,17.57
2023-05-21T02:50:19.321Z,17.50
2023-05-21T02:51:19.343Z,17.54
2023-05-21T02:52:19.398Z,17.54
2023-05-21T02:53:19.430Z,17.34
2023-05-21T02:54:19.467Z,17.43
2023-05-21T02:55:19.565Z,17.39
2023-05-21T02:56:19.569Z,17.53
2023-05-21T02:57:19.658Z,17.50
2023-05-21T02:58:19.709Z,17.63
2023-05-21T02:59:19.702Z,17.70
2023-05-21T03:00:19.774Z,17.74
2023-05-21T03:01:19.765Z,17.77
2023-05-21T03:02:19.784Z,17.85
2023-05-21T03:03:19.929Z,17.91
2023-05-21T03:04:19.804Z,17.95
2023-05-21T03:05:19.875Z,18.01
2023-05-21T03:06:19.925Z,18.04
2023-05-21T03:07:20.096Z,17.97
2023-05-21T03:08:19.960Z,17.67
2023-05-21T03:09:19.979Z,17.37
2023-05-21T03:10:20.001Z,17.37
2023-05-21T03:11:20.377Z,17.57
2023-05-21T03:12:20.131Z,17.51
2023-05-21T03:13:20.179Z,17.30
2023-05-21T03:14:20.255Z,17.40
2023-05-21T03:15:20.349Z,17.41
2023-05-21T03:16:20.358Z,17.39
2023-05-21T03:17:20.411Z,17.39
2023-05-21T03:18:20.436Z,17.41
2023-05-21T03:19:20.517Z,17.34
2023-05-21T03:20:20.545Z,17.22
2023-05-21T03:21:20.516Z,17.27
2023-05-21T03:22:20.532Z,17.37
2023-05-21T03:23:20.554Z,17.40
2023-05-21T03:24:20.559Z,17.40
2023-05-21T03:25:20.642Z,17.37
2023-05-21T03:26:20.614Z,17.15
2023-05-21T03:27:20.665Z,17.06
2023-05-21T03:28:20.650Z,16.52
2023-05-21T03:29:20.675Z,16.31
2023-05-21T03:30:20.757Z,16.40
2023-05-21T03:31:20.802Z,16.01
2023-05-21T03:32:20.827Z,16.11
2023-05-21T03:33:20.777Z,16.28
2023-05-21T03:34:20.777Z,16.32
2023-05-21T03:35:20.825Z,16.38
2023-05-21T03:36:20.820Z,16.47
2023-05-21T03:37:20.875Z,16.57
2023-05-21T03:38:20.891Z,16.71
2023-05-21T03:39:20.902Z,16.76
2023-05-21T03:40:21.378Z,16.80
2023-05-21T03:41:20.952Z,16.90
2023-05-21T03:42:20.971Z,17.02
2023-05-21T03:43:20.972Z,17.07
2023-05-21T03:44:20.993Z,17.15
2023-05-21T03:45:21.043Z,17.20
2023-05-21T03:46:21.044Z,17.27
2023-05-21T03:47:21.095Z,17.36
2023-05-21T03:48:21.061Z,17.33
2023-05-21T03:49:21.092Z,17.34
2023-05-21T03:50:21.084Z,17.22
2023-05-21T03:51:21.099Z,17.02
2023-05-21T03:52:21.117Z,17.19
2023-05-21T03:53:21.150Z,17.16
2023-05-21T03:54:21.176Z,17.09
2023-05-21T03:55:21.220Z,17.19
2023-05-21T03:56:21.246Z,17.01
2023-05-21T03:57:21.246Z,17.17
2023-05-21T03:58:21.252Z,17.17
2023-05-21T03:59:21.263Z,17.06
2023-05-21T04:00:21.274Z,17.17
2023-05-21T04:01:21.267Z,17.10
2023-05-21T04:02:21.388Z,17.23
2023-05-21T04:03:21.475Z,17.17
2023-05-21T04:04:21.351Z,17.09
2023-05-21T04:05:21.309Z,16.95
2023-05-21T04:06:21.309Z,17.12
2023-05-21T04:07:21.318Z,16.75
2023-05-21T04:08:21.333Z,16.41
2023-05-21T04:09:21.348Z,16.52
2023-05-21T04:10:21.883Z,16.11
2023-05-21T04:11:21.443Z,16.24
2023-05-21T04:12:21.428Z,16.11
2023-05-21T04:13:21.456Z,15.89
2023-05-21T04:14:21.508Z,15.92
2023-05-21T04:15:21.568Z,16.23
2023-05-21T04:16:21.592Z,16.18
2023-05-21T04:17:21.635Z,16.45
2023-05-21T04:18:21.603Z,16.44
2023-05-21T04:19:21.884Z,16.62
2023-05-21T04:20:21.646Z,16.76
2023-05-21T04:21:21.675Z,16.85
2023-05-21T04:22:21.715Z,16.83
2023-05-21T04:23:21.749Z,16.89
2023-05-21T04:24:21.780Z,17.01
2023-05-21T04:25:21.808Z,17.05
2023-05-21T04:26:21.815Z,16.93
2023-05-21T04:27:21.841Z,16.68
2023-05-21T04:28:21.854Z,16.79
2023-05-21T04:29:21.876Z,16.85
2023-05-21T04:30:21.921Z,16.71
2023-05-21T04:31:22.037Z,16.71
2023-05-21T04:32:21.996Z,16.74
2023-05-21T04:33:21.995Z,16.79
2023-05-21T04:34:22.000Z,16.95
2023-05-21T04:35:22.009Z,17.01
2023-05-21T04:36:22.030Z,17.05
2023-05-21T04:37:22.001Z,17.20
2023-05-21T04:38:22.015Z,17.29
2023-05-21T04:39:22.053Z,17.30
2023-05-21T04:40:22.050Z,17.15
2023-05-21T04:41:22.065Z,16.89
2023-05-21T04:42:22.085Z,16.93
2023-05-21T04:43:22.103Z,17.02
2023-05-21T04:44:22.124Z,17.22
2023-05-21T04:45:22.133Z,17.29
2023-05-21T04:46:22.172Z,17.34
2023-05-21T04:47:22.210Z,17.47
2023-05-21T04:48:22.162Z,17.57
2023-05-21T04:49:22.195Z,17.63
2023-05-21T04:50:22.217Z,17.76
2023-05-21T04:51:22.230Z,17.81
2023-05-21T04:52:22.256Z,17.85
2023-05-21T04:53:22.283Z,17.87
2023-05-21T04:54:22.306Z,17.95
2023-05-21T04:55:22.365Z,18.05
2023-05-21T04:56:22.460Z,18.13
2023-05-21T04:57:22.495Z,18.19
2023-05-21T04:58:22.535Z,18.27
2023-05-21T04:59:22.559Z,18.28
2023-05-21T05:00:22.577Z,18.28
2023-05-21T05:01:22.717Z,18.38
2023-05-21T05:02:22.732Z,18.48
2023-05-21T05:03:22.736Z,18.31
2023-05-21T05:04:22.680Z,18.32
2023-05-21T05:05:22.711Z,18.41
2023-05-21T05:06:22.731Z,18.42
2023-05-21T05:07:22.780Z,18.50
2023-05-21T05:08:22.815Z,18.59
2023-05-21T05:09:22.832Z,18.53
2023-05-21T05:10:22.854Z,18.31
2023-05-21T05:11:22.884Z,18.21
2023-05-21T05:12:22.940Z,18.38
2023-05-21T05:13:22.901Z,18.50
2023-05-21T05:14:22.930Z,18.64
2023-05-21T05:15:22.962Z,18.60
2023-05-21T05:16:23.050Z,18.62
2023-05-21T05:17:23.080Z,18.69
2023-05-21T05:18:23.098Z,18.76
2023-05-21T05:19:23.135Z,18.60
2023-05-21T05:20:23.182Z,18.48
2023-05-21T05:21:23.201Z,18.09
2023-05-21T05:22:23.223Z,18.08
2023-05-21T05:23:23.290Z,18.43
2023-05-21T05:24:23.315Z,18.53
2023-05-21T05:25:23.329Z,18.56
2023-05-21T05:26:23.399Z,18.60
2023-05-21T05:27:23.422Z,18.66
2023-05-21T05:28:23.427Z,18.66
2023-05-21T05:29:23.461Z,18.60
2023-05-21T05:30:23.467Z,18.74
2023-05-21T05:31:23.536Z,18.87
2023-05-21T05:32:23.510Z,18.64
2023-05-21T05:33:23.464Z,18.72
2023-05-21T05:34:23.460Z,18.60
2023-05-21T05:35:23.496Z,18.52
2023-05-21T05:36:23.456Z,18.64
2023-05-21T05:37:23.484Z,18.50
2023-05-21T05:38:23.501Z,18.32
2023-05-21T05:39:23.547Z,18.02
2023-05-21T05:40:23.541Z,18.25
2023-05-21T05:41:23.575Z,18.41
2023-05-21T05:42:23.571Z,18.58
2023-05-21T05:43:23.582Z,18.67
2023-05-21T05:44:23.572Z,18.41
2023-05-21T05:45:23.585Z,18.39
2023-05-21T05:46:23.754Z,18.35
2023-05-21T05:47:23.610Z,18.39
2023-05-21T05:48:23.670Z,18.48
2023-05-21T05:49:23.614Z,18.48
2023-05-21T05:50:23.631Z,18.43
2023-05-21T05:51:23.639Z,18.42
2023-05-21T05:52:23.627Z,18.21
2023-05-21T05:53:23.627Z,18.22
2023-05-21T05:54:23.648Z,18.24
2023-05-21T05:55:23.662Z,17.95
2023-05-21T05:56:23.734Z,18.16
2023-05-21T05:57:23.651Z,18.19
2023-05-21T05:58:23.699Z,17.92
2023-05-21T05:59:23.704Z,18.05
2023-05-21T06:00:23.726Z,17.97
2023-05-21T06:01:23.737Z,17.94
2023-05-21T06:02:23.820Z,17.90
2023-05-21T06:03:23.953Z,18.02
2023-05-21T06:04:23.788Z,18.07
2023-05-21T06:05:23.872Z,18.21
2023-05-21T06:06:23.820Z,18.16
2023-05-21T06:07:23.869Z,18.15
2023-05-21T06:08:24.052Z,18.05
2023-05-21T06:09:23.961Z,18.13
2023-05-21T06:10:24.023Z,18.29
2023-05-21T06:11:24.029Z,18.58
2023-05-21T06:12:24.061Z,18.76
2023-05-21T06:13:24.102Z,18.96
2023-05-21T06:14:24.158Z,19.13
2023-05-21T06:15:24.204Z,19.25
2023-05-21T06:16:24.244Z,19.45
2023-05-21T06:17:24.312Z,19.52
2023-05-21T06:18:24.339Z,19.48
2023-05-21T06:19:24.474Z,19.66
2023-05-21T06:20:24.408Z,19.66
2023-05-21T06:21:24.402Z,19.34
2023-05-21T06:22:25.660Z,19.58
2023-05-21T06:23:24.481Z,19.61
2023-05-21T06:24:24.513Z,19.52
2023-05-21T06:25:24.525Z,19.79
2023-05-21T06:26:24.546Z,19.42
2023-05-21T06:27:24.519Z,19.23
2023-05-21T06:28:24.525Z,19.60
2023-05-21T06:29:24.560Z,19.55
2023-05-21T06:30:24.626Z,19.45
2023-05-21T06:31:24.614Z,19.18
2023-05-21T06:32:24.691Z,19.55
2023-05-21T06:33:24.727Z,19.37
2023-05-21T06:34:24.675Z,19.35
2023-05-21T06:35:24.743Z,19.34
2023-05-21T06:36:24.731Z,19.32
2023-05-21T06:37:26.577Z,19.03
2023-05-21T06:38:24.791Z,19.11
2023-05-21T06:39:24.821Z,19.37
2023-05-21T06:40:24.852Z,19.60
2023-05-21T06:41:24.873Z,19.14
2023-05-21T06:42:24.894Z,18.84
2023-05-21T06:43:24.935Z,19.13
2023-05-21T06:44:24.977Z,19.45
2023-05-21T06:45:24.981Z,19.25
2023-05-21T06:46:25.060Z,19.34
2023-05-21T06:47:25.037Z,19.13
2023-05-21T06:48:25.071Z,19.06
2023-05-21T06:49:25.095Z,19.07
2023-05-21T06:50:25.174Z,19.23
2023-05-21T06:51:25.141Z,19.04
2023-05-21T06:52:25.153Z,19.45
2023-05-21T06:53:25.181Z,19.64
2023-05-21T06:54:26.908Z,19.32
2023-05-21T06:55:25.228Z,19.65
2023-05-21T06:56:25.258Z,19.17
2023-05-21T06:57:25.262Z,19.57
2023-05-21T06:58:25.282Z,19.21
2023-05-21T06:59:25.272Z,19.44
2023-05-21T07:00:25.328Z,19.48
2023-05-21T07:01:25.347Z,19.58
2023-05-21T07:02:25.430Z,19.35
2023-05-21T07:03:25.533Z,19.34
2023-05-21T07:04:25.443Z,19.51
2023-05-21T07:05:25.524Z,19.66
2023-05-21T07:06:25.499Z,19.62
2023-05-21T07:07:25.557Z,19.88
2023-05-21T07:08:25.571Z,19.58
2023-05-21T07:09:25.582Z,19.83
2023-05-21T07:10:25.611Z,19.58
2023-05-21T07:11:25.651Z,19.69
2023-05-21T07:12:25.718Z,19.47
2023-05-21T07:13:25.716Z,18.91
2023-05-21T07:14:25.721Z,19.35
2023-05-21T07:15:25.769Z,19.41
2023-05-21T07:16:25.840Z,19.37
2023-05-21T07:17:25.861Z,19.58
2023-05-21T07:18:25.883Z,19.51
2023-05-21T07:19:25.994Z,19.92
2023-05-21T07:20:25.982Z,19.82
2023-05-21T07:21:25.972Z,19.85
2023-05-21T07:22:27.959Z,20.09
2023-05-21T07:23:26.060Z,20.09
2023-05-21T07:24:26.042Z,19.93
2023-05-21T07:25:26.110Z,20.09
2023-05-21T07:26:26.150Z,19.89
2023-05-21T07:27:26.407Z,19.89
2023-05-21T07:28:26.264Z,20.13
2023-05-21T07:29:26.278Z,20.23
2023-05-21T07:30:26.334Z,20.23
2023-05-21T07:31:26.393Z,20.44
2023-05-21T07:32:26.412Z,20.67
2023-05-21T07:33:26.392Z,20.75
2023-05-21T07:34:26.410Z,20.98
2023-05-21T07:35:26.435Z,20.94
2023-05-21T07:36:26.472Z,20.97
2023-05-21T07:37:26.549Z,21.19
2023-05-21T07:38:26.542Z,21.01
2023-05-21T07:39:26.597Z,20.88
2023-05-21T07:40:26.638Z,20.99
2023-05-21T07:41:26.697Z,21.05
2023-05-21T07:42:26.749Z,21.12
2023-05-21T07:43:26.812Z,21.49
2023-05-21T07:44:26.874Z,21.55
2023-05-21T07:45:26.899Z,22.00
2023-05-21T07:46:27.025Z,21.85
2023-05-21T07:47:27.017Z,21.86
2023-05-21T07:48:27.039Z,21.85
2023-05-21T07:49:27.076Z,22.13
2023-05-21T07:50:27.073Z,22.16
2023-05-21T07:51:27.090Z,22.03
2023-05-21T07:52:27.161Z,22.13
2023-05-21T07:53:27.111Z,22.03
2023-05-21T07:54:27.161Z,22.61
2023-05-21T07:55:27.224Z,22.46
2023-05-21T07:56:27.240Z,22.38
2023-05-21T07:57:27.275Z,22.65
2023-05-21T07:58:27.334Z,22.37
2023-05-21T07:59:27.348Z,22.06
2023-05-21T08:00:27.358Z,21.80
2023-05-21T08:01:27.375Z,22.00
2023-05-21T08:02:27.508Z,22.04
2023-05-21T08:03:27.551Z,22.31
2023-05-21T08:04:27.565Z,22.13
2023-05-21T08:05:27.502Z,22.55
2023-05-21T08:06:27.525Z,22.62
2023-05-21T08:07:27.547Z,22.38
2023-05-21T08:08:27.562Z,22.88
2023-05-21T08:09:27.591Z,22.44
2023-05-21T08:10:27.611Z,22.50
2023-05-21T08:11:27.619Z,22.30
2023-05-21T08:12:27.677Z,22.38
2023-05-21T08:13:27.757Z,22.54
2023-05-21T08:14:27.843Z,22.97
2023-05-21T08:15:27.959Z,23.33
2023-05-21T08:16:28.050Z,22.97
2023-05-21T08:17:28.107Z,23.10
2023-05-21T08:18:28.157Z,23.23
2023-05-21T08:19:28.348Z,23.19
2023-05-21T08:20:28.242Z,23.39
2023-05-21T08:21:28.215Z,23.57
2023-05-21T08:22:28.231Z,23.45
2023-05-21T08:23:28.271Z,23.57
2023-05-21T08:24:28.324Z,23.83
2023-05-21T08:25:28.288Z,23.73
2023-05-21T08:26:28.301Z,23.71
2023-05-21T08:27:28.355Z,23.46
2023-05-21T08:28:28.353Z,23.63
2023-05-21T08:29:28.390Z,23.87
2023-05-21T08:30:28.399Z,23.93
2023-05-21T08:31:28.438Z,23.94
2023-05-21T08:32:28.485Z,23.88
2023-05-21T08:33:28.439Z,23.90
2023-05-21T08:34:28.479Z,24.32
2023-05-21T08:35:28.532Z,24.35
2023-05-21T08:36:28.564Z,24.59
2023-05-21T08:37:28.513Z,24.52
2023-05-21T08:38:30.218Z,24.73
2023-05-21T08:39:28.597Z,24.43
2023-05-21T08:40:28.625Z,24.61
2023-05-21T08:41:28.640Z,24.86
2023-05-21T08:42:36.587Z,24.83
2023-05-21T08:43:29.702Z,25.00
2023-05-21T08:44:28.693Z,25.00
2023-05-21T08:45:28.693Z,25.09
2023-05-21T08:46:28.737Z,25.24
2023-05-21T08:47:28.666Z,25.07
2023-05-21T08:48:28.662Z,25.33
2023-05-21T08:49:28.638Z,25.24
2023-05-21T08:50:28.642Z,25.48
2023-05-21T08:51:28.626Z,25.40
2023-05-21T08:52:28.645Z,25.36
2023-05-21T08:53:29.308Z,25.50
2023-05-21T08:54:28.628Z,25.48
2023-05-21T08:55:28.600Z,25.61
2023-05-21T08:56:28.609Z,26.02
2023-05-21T08:57:28.592Z,25.94
2023-05-21T08:58:28.587Z,25.96
2023-05-21T08:59:28.572Z,25.96
2023-05-21T09:00:28.584Z,25.80
2023-05-21T09:01:28.603Z,25.61
2023-05-21T09:02:28.608Z,26.08
2023-05-21T09:03:28.612Z,25.88
2023-05-21T09:04:28.611Z,26.19
2023-05-21T09:05:28.648Z,26.16
2023-05-21T09:06:28.644Z,26.15
2023-05-21T09:07:28.709Z,26.28
2023-05-21T09:08:28.792Z,25.89
2023-05-21T09:09:28.804Z,25.38
2023-05-21T09:10:28.818Z,25.71
2023-05-21T09:11:28.882Z,25.91
2023-05-21T09:12:28.923Z,26.13
2023-05-21T09:13:28.918Z,26.05
2023-05-21T09:14:28.970Z,25.27
2023-05-21T09:15:29.011Z,25.84
2023-05-21T09:16:29.134Z,26.18
2023-05-21T09:17:29.106Z,26.22
2023-05-21T09:18:29.131Z,26.18
2023-05-21T09:19:29.259Z,26.40
2023-05-21T09:20:29.187Z,26.42
2023-05-21T09:21:29.190Z,26.35
2023-05-21T09:22:29.243Z,26.67
2023-05-21T09:23:29.222Z,26.93
2023-05-21T09:24:29.238Z,26.96
2023-05-21T09:25:29.281Z,27.14
2023-05-21T09:26:29.320Z,27.23
2023-05-21T09:27:29.354Z,27.28
2023-05-21T09:28:29.414Z,27.24
2023-05-21T09:29:29.481Z,27.69
2023-05-21T09:30:30.694Z,27.62
2023-05-21T09:31:29.665Z,27.99
2023-05-21T09:32:29.589Z,28.02
2023-05-21T09:33:29.692Z,27.79
2023-05-21T09:34:29.516Z,28.12
2023-05-21T09:35:29.551Z,28.24
2023-05-21T09:36:29.609Z,28.50
2023-05-21T09:37:29.487Z,28.79
2023-05-21T09:38:29.513Z,28.90
2023-05-21T09:39:29.477Z,28.99
2023-05-21T09:40:29.482Z,28.90
2023-05-21T09:41:29.462Z,28.98
2023-05-21T09:42:29.439Z,29.01
2023-05-21T09:43:29.443Z,29.26
2023-05-21T09:44:29.446Z,29.50
2023-05-21T09:45:29.428Z,29.70
2023-05-21T09:46:29.501Z,29.77
2023-05-21T09:47:29.454Z,29.83
2023-05-21T09:48:29.488Z,30.04
2023-05-21T09:49:29.421Z,30.16
2023-05-21T09:50:29.405Z,29.84
2023-05-21T09:51:29.395Z,29.58
2023-05-21T09:52:29.391Z,29.56
2023-05-21T09:53:29.391Z,29.68
2023-05-21T09:54:29.387Z,29.70
2023-05-21T09:55:29.360Z,29.55
2023-05-21T09:56:29.444Z,29.46
2023-05-21T09:57:29.415Z,29.69
2023-05-21T09:58:29.382Z,29.89
2023-05-21T09:59:29.335Z,29.72
2023-05-21T10:00:29.335Z,29.75
2023-05-21T10:01:29.354Z,29.87
2023-05-21T10:02:29.356Z,30.01
2023-05-21T10:03:29.335Z,30.31
2023-05-21T10:04:29.338Z,30.50
2023-05-21T10:05:29.307Z,30.62
2023-05-21T10:06:29.333Z,30.72
2023-05-21T10:07:29.308Z,30.78
2023-05-21T10:09:03.877Z,30.70
2023-05-21T10:10:01.724Z,30.91
2023-05-21T10:11:01.716Z,30.81
2023-05-21T10:12:01.713Z,30.79
2023-05-21T10:13:01.700Z,30.92
2023-05-21T10:14:01.692Z,30.92
2023-05-21T10:15:01.683Z,31.05
2023-05-21T10:16:01.754Z,30.99
2023-05-21T10:17:01.669Z,30.85
2023-05-21T10:18:01.685Z,30.99
2023-05-21T10:19:01.670Z,30.82
2023-05-21T10:20:01.691Z,31.09
2023-05-21T10:21:01.657Z,31.05
2023-05-21T10:22:01.665Z,30.72
2023-05-21T10:23:01.640Z,30.89
2023-05-21T10:24:01.648Z,30.81
2023-05-21T10:25:01.643Z,30.70
2023-05-21T10:26:01.633Z,30.88
2023-05-21T10:27:01.612Z,30.77
2023-05-21T10:28:01.606Z,30.85
2023-05-21T10:29:01.614Z,30.92
2023-05-21T10:30:01.605Z,30.67
2023-05-21T10:31:01.590Z,30.64
2023-05-21T10:32:01.602Z,30.24
2023-05-21T10:33:01.784Z,30.32
2023-05-21T10:34:01.598Z,30.41
2023-05-21T10:35:02.038Z,30.31
2023-05-21T10:36:01.580Z,30.45
2023-05-21T10:37:01.556Z,30.35
2023-05-21T10:38:01.555Z,30.42
2023-05-21T10:39:01.565Z,30.35
2023-05-21T10:40:01.540Z,30.17
2023-05-21T10:41:01.560Z,30.35
2023-05-21T10:42:01.526Z,30.44
2023-05-21T10:43:01.525Z,30.54
2023-05-21T10:44:01.516Z,30.44
2023-05-21T10:45:01.507Z,30.26
2023-05-21T10:46:01.624Z,30.13
2023-05-21T10:47:01.505Z,30.11
2023-05-21T10:48:01.519Z,30.34
2023-05-21T10:49:01.495Z,30.06
2023-05-21T10:50:01.477Z,29.99
2023-05-21T10:51:01.472Z,29.96
2023-05-21T10:52:01.451Z,30.06
2023-05-21T10:53:01.445Z,29.86
2023-05-21T10:54:01.434Z,29.89
2023-05-21T10:55:01.432Z,29.73
2023-05-21T10:56:01.422Z,29.97
2023-05-21T10:57:01.424Z,30.19
2023-05-21T10:58:01.460Z,30.27
2023-05-21T10:59:01.452Z,30.14
2023-05-21T11:00:01.561Z,30.71
2023-05-21T11:01:01.538Z,30.85
2023-05-21T11:02:01.612Z,31.22
2023-05-21T11:03:01.666Z,31.37
2023-05-21T11:04:01.677Z,31.57
2023-05-21T11:05:01.675Z,31.54
2023-05-21T11:06:01.700Z,31.76
2023-05-21T11:07:01.722Z,31.44
2023-05-21T11:08:01.751Z,31.59
2023-05-21T11:09:01.788Z,31.57
2023-05-21T11:10:01.817Z,31.39
2023-05-21T11:11:01.860Z,31.32
2023-05-21T11:12:01.880Z,31.15
2023-05-21T11:13:01.890Z,31.19
2023-05-21T11:14:01.915Z,31.09
2023-05-21T11:15:01.938Z,31.64
2023-05-21T11:16:01.952Z,31.88
2023-05-21T11:17:02.077Z,32.04
2023-05-21T11:18:02.105Z,31.93
2023-05-21T11:19:02.076Z,32.17
2023-05-21T11:20:02.108Z,32.00
2023-05-21T11:21:02.120Z,32.13
2023-05-21T11:22:02.139Z,32.30
2023-05-21T11:23:02.183Z,32.35
2023-05-21T11:24:02.210Z,32.38
2023-05-21T11:25:02.218Z,32.35
2023-05-21T11:26:02.237Z,32.39
2023-05-21T11:27:02.251Z,32.48
2023-05-21T11:28:02.268Z,32.68
2023-05-21T11:29:02.316Z,32.62
2023-05-21T11:30:02.378Z,32.71
2023-05-21T11:31:02.477Z,32.86
2023-05-21T11:32:02.478Z,33.02
2023-05-21T11:33:02.538Z,33.22
2023-05-21T11:34:02.556Z,32.93
2023-05-21T11:35:02.605Z,32.83
2023-05-21T11:36:02.641Z,32.90
2023-05-21T11:37:02.656Z,33.01
2023-05-21T11:38:02.665Z,33.32
2023-05-21T11:39:02.682Z,33.59
2023-05-21T11:40:02.701Z,33.64
2023-05-21T11:41:02.709Z,33.63
2023-05-21T11:42:04.493Z,33.83
2023-05-21T11:43:02.803Z,33.52
2023-05-21T11:44:02.838Z,33.61
2023-05-21T11:45:02.859Z,33.60
2023-05-21T11:46:02.920Z,33.68
2023-05-21T11:47:02.975Z,33.87
2023-05-21T11:48:03.004Z,33.56
2023-05-21T11:49:02.971Z,33.54
2023-05-21T11:50:02.978Z,33.91
2023-05-21T11:51:02.978Z,34.10
2023-05-21T11:52:02.996Z,34.19
2023-05-21T11:53:03.003Z,34.08
2023-05-21T11:54:03.041Z,34.29
2023-05-21T11:55:03.068Z,34.51
2023-05-21T11:56:03.083Z,34.44
2023-05-21T11:57:03.110Z,34.38
2023-05-21T11:58:03.170Z,34.56
2023-05-21T11:59:03.192Z,34.79
2023-05-21T12:00:03.239Z,34.56
2023-05-21T12:01:03.303Z,34.61
2023-05-21T12:02:03.341Z,34.78
2023-05-21T12:03:03.508Z,34.38
2023-05-21T12:04:03.475Z,34.19
2023-05-21T12:05:03.482Z,34.12
2023-05-21T12:06:03.552Z,33.90
2023-05-21T12:07:03.507Z,33.61
2023-05-21T12:08:03.539Z,33.47
2023-05-21T12:09:03.538Z,33.37
2023-05-21T12:10:03.601Z,33.30
2023-05-21T12:11:03.628Z,32.96
2023-05-21T12:12:03.684Z,33.03
2023-05-21T12:13:03.679Z,32.79
2023-05-21T12:14:03.686Z,32.50
2023-05-21T12:15:03.673Z,32.44
2023-05-21T12:16:05.820Z,32.01
2023-05-21T12:17:03.672Z,31.97
2023-05-21T12:18:03.720Z,31.90
2023-05-21T12:19:03.709Z,31.98
2023-05-21T12:20:03.673Z,31.73
2023-05-21T12:21:03.664Z,31.93
2023-05-21T12:22:03.641Z,31.95
2023-05-21T12:23:03.641Z,31.98
2023-05-21T12:24:03.642Z,31.94
2023-05-21T12:25:03.639Z,32.06
2023-05-21T12:26:03.635Z,31.90
2023-05-21T12:27:03.641Z,31.79
2023-05-21T12:28:03.650Z,31.87
2023-05-21T12:29:03.633Z,31.77
2023-05-21T12:30:03.602Z,31.71
2023-05-21T12:31:03.616Z,31.80
2023-05-21T12:32:03.748Z,31.79
2023-05-21T12:33:03.614Z,31.83
2023-05-21T12:34:03.594Z,31.74
2023-05-21T12:35:03.620Z,31.77
2023-05-21T12:36:03.594Z,31.54
2023-05-21T12:37:03.560Z,31.80
2023-05-21T12:38:03.560Z,31.57
2023-05-21T12:39:03.555Z,31.67
2023-05-21T12:40:03.580Z,31.69
2023-05-21T12:41:03.536Z,31.73
2023-05-21T12:42:03.525Z,31.73
2023-05-21T12:43:03.541Z,31.63
2023-05-21T12:44:03.541Z,31.60
2023-05-21T12:45:03.506Z,31.83
2023-05-21T12:46:03.557Z,32.03
2023-05-21T12:47:03.525Z,32.36
2023-05-21T12:48:03.614Z,32.50
2023-05-21T12:49:03.479Z,32.55
2023-05-21T12:50:03.509Z,32.95
2023-05-21T12:51:03.473Z,33.12
2023-05-21T12:52:03.479Z,33.08
2023-05-21T12:53:03.463Z,33.46